Time;durP1;ratioP1;P1;durP2;ratioP2;P2;SDS_P1;SDS_P2;PMS_P1;PMS_P2;Temp;Humidity;BMP_temperature;BMP_pressure;BME280_temperature;BME280_humidity;BME280_pressure;Samples;Min_cycle;Max_cycle;Signal;HPM_P1;HPM_P2
2021/08/29 00:00:21;;;;;;;1.77;1.67;;;11.10;94.20;;;;;;4991874;28;20039;-68
2021/08/29 00:02:47;;;;;;;2.10;1.90;;;11.10;94.20;;;;;;4993431;28;20037;-68
2021/08/29 00:05:13;;;;;;;2.08;1.88;;;11.10;94.20;;;;;;4989244;28;20050;-68
2021/08/29 00:07:38;;;;;;;2.00;1.90;;;11.10;94.20;;;;;;4988801;28;20022;-68
2021/08/29 00:10:05;;;;;;;2.60;2.33;;;11.10;94.30;;;;;;4989242;28;20037;-68
2021/08/29 00:12:31;;;;;;;2.08;1.70;;;11.20;94.20;;;;;;4994055;28;20026;-68
2021/08/29 00:14:57;;;;;;;2.72;2.08;;;11.20;94.20;;;;;;4991899;28;20471;-68
2021/08/29 00:17:23;;;;;;;2.28;1.98;;;11.20;94.30;;;;;;4991072;28;20485;-68
2021/08/29 00:19:48;;;;;;;2.03;1.83;;;11.20;94.30;;;;;;4992625;28;20101;-68
2021/08/29 00:22:14;;;;;;;2.60;2.22;;;11.20;94.30;;;;;;4992249;28;20034;-68
2021/08/29 00:24:40;;;;;;;2.22;2.00;;;11.20;94.30;;;;;;4991433;28;20045;-69
2021/08/29 00:27:06;;;;;;;2.15;1.90;;;11.20;94.40;;;;;;4991899;28;20030;-68
2021/08/29 00:29:32;;;;;;;2.30;2.08;;;11.20;94.30;;;;;;4982022;28;20061;-68
2021/08/29 00:31:57;;;;;;;2.08;1.83;;;11.20;94.30;;;;;;4994979;28;20050;-68
2021/08/29 00:34:23;;;;;;;2.22;2.03;;;11.30;94.30;;;;;;4991409;28;20088;-67
2021/08/29 00:36:49;;;;;;;2.50;2.10;;;11.30;94.40;;;;;;4984591;28;20026;-68
2021/08/29 00:39:14;;;;;;;2.10;1.90;;;11.30;94.40;;;;;;4992790;28;20495;-68
2021/08/29 00:41:42;;;;;;;5.05;2.30;;;11.30;94.40;;;;;;4991687;28;20046;-70
2021/08/29 00:44:07;;;;;;;2.35;2.13;;;11.30;94.40;;;;;;4991132;28;20101;-68
2021/08/29 00:46:34;;;;;;;2.42;2.22;;;11.30;94.40;;;;;;4992929;28;20101;-68
2021/08/29 00:48:59;;;;;;;2.22;2.00;;;11.30;94.20;;;;;;4992006;28;20101;-67
2021/08/29 00:51:25;;;;;;;2.50;2.30;;;11.30;94.20;;;;;;4992832;28;20498;-67
2021/08/29 00:53:55;;;;;;;3.05;2.38;;;11.30;94.20;;;;;;4991676;28;20115;-67
2021/08/29 00:56:24;;;;;;;3.45;2.05;;;11.30;94.20;;;;;;4993133;28;20118;-67
2021/08/29 00:58:51;;;;;;;2.35;2.15;;;11.30;94.30;;;;;;4991510;28;20026;-69
2021/08/29 01:01:20;;;;;;;3.40;2.13;;;11.30;94.20;;;;;;4984927;28;20054;-68
2021/08/29 01:03:46;;;;;;;;;;;11.30;94.40;;;;;;4985474;28;20042;-67
2021/08/29 01:06:24;;;;;;;2.00;1.85;;;11.30;94.30;;;;;;4992841;28;19906;-68
2021/08/29 01:08:59;;;;;;;3.95;2.30;;;11.30;94.30;;;;;;4989038;28;20034;-68
2021/08/29 01:11:26;;;;;;;3.70;2.53;;;11.30;94.50;;;;;;4989572;28;20534;-68
2021/08/29 01:13:59;;;;;;;3.30;2.53;;;11.30;94.30;;;;;;4989730;28;20034;-68
2021/08/29 01:16:28;;;;;;;3.95;2.50;;;11.30;94.40;;;;;;5003207;28;20112;-68
2021/08/29 01:18:56;;;;;;;3.65;2.53;;;11.30;94.40;;;;;;4991513;28;20030;-68
2021/08/29 01:21:25;;;;;;;2.90;2.63;;;11.30;94.50;;;;;;4990878;28;20038;-68
2021/08/29 01:24:01;;;;;;;2.95;2.33;;;11.30;94.60;;;;;;4990806;28;20547;-67
2021/08/29 01:26:56;;;;;;;3.08;2.30;;;11.30;94.50;;;;;;4991743;28;20437;-68
2021/08/29 01:29:28;;;;;;;2.72;2.30;;;11.30;94.50;;;;;;4991727;28;20544;-68
2021/08/29 01:31:54;;;;;;;2.50;2.20;;;11.40;94.50;;;;;;4990931;28;20045;-68
2021/08/29 01:34:20;;;;;;;2.53;2.15;;;11.40;94.60;;;;;;4989216;28;20081;-68
2021/08/29 01:36:51;;;;;;;2.75;2.20;;;11.40;94.60;;;;;;4992356;28;20095;-67
2021/08/29 01:39:18;;;;;;;2.83;2.20;;;11.40;94.50;;;;;;4990420;28;20084;-68
2021/08/29 01:41:47;;;;;;;2.70;2.40;;;11.40;94.60;;;;;;4992809;28;20026;-68
2021/08/29 01:44:13;;;;;;;5.22;2.38;;;11.40;94.60;;;;;;4979983;28;20363;-68
2021/08/29 01:46:41;;;;;;;2.35;2.15;;;11.40;94.70;;;;;;4992554;28;20034;-68
2021/08/29 01:49:11;;;;;;;2.40;2.20;;;11.40;94.60;;;;;;4989127;28;20041;-68
2021/08/29 01:51:38;;;;;;;2.78;2.53;;;11.40;94.60;;;;;;4992375;28;20061;-68
2021/08/29 01:54:04;;;;;;;2.55;2.28;;;11.40;95.00;;;;;;4995920;28;20080;-69
2021/08/29 01:56:30;;;;;;;3.28;2.25;;;11.40;94.60;;;;;;4993859;28;20034;-68
2021/08/29 01:58:56;;;;;;;2.42;2.22;;;11.40;94.60;;;;;;4995414;28;20030;-68
2021/08/29 02:01:21;;;;;;;4.22;2.75;;;11.50;94.50;;;;;;4993094;28;20110;-68
2021/08/29 02:03:48;;;;;;;3.97;2.65;;;11.50;94.50;;;;;;4988891;28;20035;-67
2021/08/29 02:06:20;;;;;;;3.78;2.40;;;11.50;94.50;;;;;;4994361;28;20022;-68
2021/08/29 02:09:10;;;;;;;3.00;1.98;;;11.50;94.50;;;;;;4995743;28;20031;-68
2021/08/29 02:11:42;;;;;;;3.25;2.47;;;11.50;94.50;;;;;;4996247;28;20105;-68
2021/08/29 02:14:32;;;;;;;3.15;2.33;;;11.40;94.50;;;;;;4993768;28;20026;-68
2021/08/29 02:16:58;;;;;;;3.08;2.35;;;11.50;94.90;;;;;;4988301;28;20014;-68
2021/08/29 02:19:27;;;;;;;2.42;2.20;;;11.50;94.50;;;;;;4993085;28;20022;-68
2021/08/29 02:21:53;;;;;;;3.10;2.40;;;11.50;94.50;;;;;;4993535;28;20041;-68
2021/08/29 02:24:25;;;;;;;3.35;2.20;;;11.50;94.50;;;;;;4995470;28;20037;-68
2021/08/29 02:26:51;;;;;;;2.92;2.40;;;11.50;94.60;;;;;;4995633;28;20061;-68
2021/08/29 02:29:18;;;;;;;4.03;2.67;;;11.40;94.60;;;;;;4991042;28;20073;-68
2021/08/29 02:31:47;;;;;;;3.38;2.47;;;11.40;94.70;;;;;;4997484;28;20031;-69
2021/08/29 02:34:13;;;;;;;4.10;2.70;;;11.40;94.70;;;;;;4988900;28;20036;-68
2021/08/29 02:36:41;;;;;;;3.15;2.33;;;11.40;94.70;;;;;;4994791;28;20026;-68
2021/08/29 02:39:07;;;;;;;3.22;2.55;;;11.40;94.70;;;;;;4988430;28;20053;-68
2021/08/29 02:41:35;;;;;;;3.05;2.75;;;11.50;94.70;;;;;;4992520;28;20498;-69
2021/08/29 02:44:02;;;;;;;3.13;2.80;;;11.50;94.60;;;;;;4993383;28;20046;-69
2021/08/29 02:46:28;;;;;;;4.28;3.10;;;11.50;94.90;;;;;;4995216;28;20037;-68
2021/08/29 02:48:54;;;;;;;3.90;2.60;;;11.40;94.70;;;;;;4994054;28;20026;-68
2021/08/29 02:51:23;;;;;;;3.75;2.70;;;11.50;94.70;;;;;;4994441;28;20033;-68
2021/08/29 02:53:49;;;;;;;5.18;2.85;;;11.50;94.70;;;;;;4993997;28;20117;-68
2021/08/29 02:56:18;;;;;;;4.50;2.50;;;11.50;94.70;;;;;;4994342;28;20035;-68
2021/08/29 02:58:45;;;;;;;;;;;11.50;94.80;;;;;;4994300;28;20038;-68
2021/08/29 03:01:10;;;;;;;3.70;2.58;;;11.50;94.80;;;;;;4992153;28;19941;-68
2021/08/29 03:03:36;;;;;;;5.75;2.90;;;11.50;94.80;;;;;;4989072;28;20420;-68
2021/08/29 03:06:02;;;;;;;3.85;3.00;;;11.50;94.80;;;;;;4992334;28;20026;-68
2021/08/29 03:08:28;;;;;;;4.90;3.20;;;11.50;94.90;;;;;;5001749;28;20129;-68
2021/08/29 03:10:54;;;;;;;4.80;3.30;;;11.50;94.90;;;;;;4994795;28;20018;-68
2021/08/29 03:13:20;;;;;;;4.15;3.17;;;11.40;94.90;;;;;;4993830;28;20135;-68
2021/08/29 03:15:46;;;;;;;4.85;3.65;;;11.50;94.90;;;;;;4994033;28;20049;-69
2021/08/29 03:18:12;;;;;;;4.82;3.20;;;11.40;94.90;;;;;;4992937;28;20026;-69
2021/08/29 03:20:38;;;;;;;4.22;3.22;;;11.40;95.00;;;;;;4985028;28;20122;-68
2021/08/29 03:23:04;;;;;;;5.78;3.63;;;11.50;95.00;;;;;;4994751;28;20387;-68
2021/08/29 03:25:30;;;;;;;4.90;3.30;;;11.50;94.90;;;;;;4994354;28;20026;-68
2021/08/29 03:27:56;;;;;;;5.78;3.40;;;11.50;94.90;;;;;;4994892;28;20411;-68
2021/08/29 03:30:22;;;;;;;6.72;3.65;;;11.50;94.70;;;;;;4992604;28;20015;-68
2021/08/29 03:32:47;;;;;;;5.28;3.92;;;11.50;94.70;;;;;;4989595;28;20085;-68
2021/08/29 03:35:14;;;;;;;5.82;3.67;;;11.50;94.80;;;;;;4993100;28;20471;-69
2021/08/29 03:37:41;;;;;;;3.90;3.50;;;11.50;94.90;;;;;;4988541;28;20053;-68
2021/08/29 03:40:07;;;;;;;4.57;3.35;;;11.50;94.80;;;;;;4992780;28;21853;-68
2021/08/29 03:42:34;;;;;;;6.72;4.53;;;11.40;94.90;;;;;;4993550;28;20030;-68
2021/08/29 03:45:09;;;;;;;5.70;3.95;;;11.50;95.00;;;;;;4989778;28;20091;-68
2021/08/29 03:47:38;;;;;;;8.98;4.05;;;11.50;94.90;;;;;;4984066;28;20030;-68
2021/08/29 03:50:05;;;;;;;6.90;3.95;;;11.50;94.90;;;;;;4994048;28;20034;-68
2021/08/29 03:52:32;;;;;;;5.95;4.10;;;11.50;94.90;;;;;;4988117;28;20026;-68
2021/08/29 03:54:58;;;;;;;5.47;3.67;;;11.50;95.00;;;;;;4993349;28;20044;-68
2021/08/29 03:57:24;;;;;;;9.63;4.43;;;11.50;95.00;;;;;;4991927;28;20034;-68
2021/08/29 03:59:50;;;;;;;6.25;4.30;;;11.50;95.00;;;;;;4993773;28;20034;-69
2021/08/29 04:02:16;;;;;;;5.93;4.40;;;11.50;95.00;;;;;;4992590;28;20737;-68
2021/08/29 04:04:42;;;;;;;6.47;4.07;;;11.50;95.10;;;;;;4994433;28;20415;-69
2021/08/29 04:07:09;;;;;;;6.65;4.30;;;11.50;94.90;;;;;;4992894;28;20109;-68
2021/08/29 04:09:36;;;;;;;9.18;4.53;;;11.50;95.10;;;;;;5006038;28;20034;-68
2021/08/29 04:12:02;;;;;;;6.65;4.38;;;11.50;95.00;;;;;;4993083;28;20479;-68
2021/08/29 04:14:29;;;;;;;7.20;4.72;;;11.50;95.00;;;;;;4992982;28;20034;-68
2021/08/29 04:16:57;;;;;;;7.43;4.63;;;11.50;94.90;;;;;;4991647;28;20088;-68
2021/08/29 04:19:25;;;;;;;8.20;4.95;;;11.60;95.00;;;;;;4993157;28;20522;-68
2021/08/29 04:21:52;;;;;;;8.10;4.27;;;11.50;94.90;;;;;;4991402;28;20368;-68
2021/08/29 04:24:18;;;;;;;6.93;4.68;;;11.50;95.00;;;;;;4993343;28;20022;-68
2021/08/29 04:26:44;;;;;;;7.45;4.70;;;11.60;95.00;;;;;;4993272;28;20105;-68
2021/08/29 04:29:10;;;;;;;8.90;5.22;;;11.60;95.00;;;;;;4993262;28;20034;-70
2021/08/29 04:31:37;;;;;;;6.57;4.43;;;11.60;94.80;;;;;;4991094;28;20038;-68
2021/08/29 04:34:05;;;;;;;9.70;5.35;;;11.60;94.90;;;;;;4992227;28;20054;-68
2021/08/29 04:36:32;;;;;;;9.48;5.07;;;11.60;95.10;;;;;;4992911;28;20117;-68
2021/08/29 04:39:02;;;;;;;8.73;5.18;;;11.60;95.00;;;;;;5002331;28;20049;-68
2021/08/29 04:41:27;;;;;;;7.80;5.20;;;11.70;95.10;;;;;;4992276;28;20034;-68
2021/08/29 04:43:53;;;;;;;7.22;4.78;;;11.60;95.10;;;;;;4989832;28;20027;-68
2021/08/29 04:46:19;;;;;;;7.18;5.07;;;11.60;95.10;;;;;;4984112;28;20387;-68
2021/08/29 04:48:44;;;;;;;8.15;5.30;;;11.60;95.10;;;;;;4990260;28;20026;-68
2021/08/29 04:51:10;;;;;;;7.30;5.05;;;11.60;95.30;;;;;;4991295;28;20037;-68
2021/08/29 04:53:36;;;;;;;9.75;5.70;;;11.70;95.30;;;;;;4989143;28;20034;-68
2021/08/29 04:56:01;;;;;;;7.80;5.10;;;11.70;95.30;;;;;;4986421;28;20049;-68
2021/08/29 04:58:28;;;;;;;7.78;5.38;;;11.70;95.30;;;;;;4990307;28;20101;-68
2021/08/29 05:00:53;;;;;;;9.20;5.75;;;11.80;95.30;;;;;;4989821;28;20081;-68
2021/08/29 05:03:19;;;;;;;7.82;5.22;;;11.70;95.40;;;;;;4991140;28;20030;-68
2021/08/29 05:05:44;;;;;;;9.23;5.57;;;11.80;95.20;;;;;;4990627;28;20093;-69
2021/08/29 05:08:10;;;;;;;9.93;6.20;;;11.70;95.30;;;;;;4987799;28;20041;-68
2021/08/29 05:10:36;;;;;;;10.15;5.75;;;11.80;95.40;;;;;;4995673;28;20030;-68
2021/08/29 05:13:01;;;;;;;8.68;6.15;;;11.70;95.30;;;;;;4988352;28;20061;-68
2021/08/29 05:15:27;;;;;;;9.15;5.30;;;11.70;95.40;;;;;;4990285;28;20022;-68
2021/08/29 05:17:53;;;;;;;8.57;5.57;;;11.80;95.30;;;;;;4989931;28;20049;-68
2021/08/29 05:20:18;;;;;;;8.93;5.18;;;11.80;95.30;;;;;;4991028;28;20030;-69
2021/08/29 05:22:44;;;;;;;10.57;5.60;;;11.80;95.30;;;;;;4988686;28;20446;-68
2021/08/29 05:25:10;;;;;;;7.68;5.53;;;11.80;95.40;;;;;;4990276;28;20042;-68
2021/08/29 05:27:36;;;;;;;8.65;5.32;;;11.80;95.40;;;;;;4990060;28;20018;-68
2021/08/29 05:30:02;;;;;;;9.07;5.90;;;11.80;95.30;;;;;;4988900;28;20037;-68
2021/08/29 05:32:28;;;;;;;11.02;6.40;;;11.80;95.40;;;;;;4989527;28;20069;-69
2021/08/29 05:34:54;;;;;;;9.88;5.80;;;11.80;95.50;;;;;;4989042;28;20475;-68
2021/08/29 05:37:19;;;;;;;7.90;5.70;;;11.80;95.60;;;;;;4990745;28;20505;-68
2021/08/29 05:39:45;;;;;;;9.93;6.20;;;11.80;95.50;;;;;;4989075;28;20073;-68
2021/08/29 05:42:10;;;;;;;9.10;6.47;;;11.80;95.50;;;;;;4990220;28;20104;-68
2021/08/29 05:44:36;;;;;;;8.57;5.43;;;11.80;95.60;;;;;;4988929;28;20416;-68
2021/08/29 05:47:02;;;;;;;9.43;6.30;;;11.80;95.40;;;;;;4990402;28;20022;-69
2021/08/29 05:49:28;;;;;;;10.60;5.90;;;11.80;95.40;;;;;;4990397;28;20022;-68
2021/08/29 05:51:54;;;;;;;9.25;6.10;;;11.90;95.60;;;;;;4986462;28;20038;-69
2021/08/29 05:54:19;;;;;;;11.10;6.40;;;11.90;95.50;;;;;;4990789;28;20027;-68
2021/08/29 05:56:45;;;;;;;9.55;6.05;;;11.90;95.60;;;;;;4990533;28;20049;-69
2021/08/29 05:59:11;;;;;;;12.50;6.63;;;11.90;95.60;;;;;;4988346;28;20058;-68
2021/08/29 06:01:37;;;;;;;8.70;5.75;;;11.90;95.50;;;;;;4988355;28;20042;-69
2021/08/29 06:04:02;;;;;;;11.30;6.15;;;11.90;95.60;;;;;;4986369;28;20030;-68
2021/08/29 06:06:28;;;;;;;11.45;6.65;;;12.00;95.60;;;;;;4986305;28;20050;-68
2021/08/29 06:08:53;;;;;;;9.23;5.90;;;11.90;95.60;;;;;;4989513;28;20106;-68
2021/08/29 06:11:19;;;;;;;11.25;6.57;;;11.90;95.90;;;;;;4991142;28;20467;-68
2021/08/29 06:13:45;;;;;;;11.35;7.55;;;12.00;95.60;;;;;;4988567;28;20042;-68
2021/08/29 06:16:10;;;;;;;11.60;6.90;;;12.00;95.60;;;;;;4990051;28;20042;-69
2021/08/29 06:18:36;;;;;;;9.75;6.50;;;12.00;95.70;;;;;;4990463;28;20034;-68
2021/08/29 06:21:03;;;;;;;9.55;5.80;;;12.00;95.80;;;;;;4988782;28;20038;-68
2021/08/29 06:23:29;;;;;;;11.18;5.68;;;12.00;95.90;;;;;;4990526;28;20026;-68
2021/08/29 06:25:54;;;;;;;11.50;6.50;;;12.00;95.80;;;;;;4989674;28;20088;-69
2021/08/29 06:28:20;;;;;;;9.75;5.47;;;12.00;95.70;;;;;;4986771;28;20030;-69
2021/08/29 06:30:46;;;;;;;10.82;6.05;;;12.00;96.00;;;;;;4986890;28;20030;-68
2021/08/29 06:33:11;;;;;;;8.60;5.55;;;12.10;95.80;;;;;;4985402;28;20487;-69
2021/08/29 06:35:37;;;;;;;9.10;5.25;;;12.10;95.90;;;;;;4990539;28;20092;-68
2021/08/29 06:38:03;;;;;;;10.68;6.07;;;12.10;95.80;;;;;;4985975;28;20093;-69
2021/08/29 06:40:28;;;;;;;7.88;5.10;;;12.10;95.90;;;;;;4987092;28;20556;-69
2021/08/29 06:42:54;;;;;;;8.25;5.68;;;12.10;95.90;;;;;;4990715;28;20053;-68
2021/08/29 06:45:20;;;;;;;10.32;6.20;;;12.10;95.80;;;;;;4990757;28;20645;-68
2021/08/29 06:47:45;;;;;;;10.05;5.90;;;12.10;96.00;;;;;;4994271;28;20221;-69
2021/08/29 06:50:11;;;;;;;8.95;6.07;;;12.10;95.80;;;;;;4993640;28;20034;-68
2021/08/29 06:52:37;;;;;;;10.23;5.85;;;12.10;95.90;;;;;;4989666;28;20035;-68
2021/08/29 06:55:03;;;;;;;9.40;6.40;;;12.20;95.90;;;;;;4993180;28;20110;-68
2021/08/29 06:57:29;;;;;;;13.10;6.93;;;12.10;95.80;;;;;;4992317;28;20482;-69
2021/08/29 06:59:55;;;;;;;11.68;6.57;;;12.10;95.80;;;;;;4992786;28;20026;-68
2021/08/29 07:02:21;;;;;;;11.90;6.63;;;12.20;96.00;;;;;;4992031;28;20060;-68
2021/08/29 07:04:48;;;;;;;12.13;6.68;;;12.20;96.00;;;;;;4994079;28;20019;-68
2021/08/29 07:07:14;;;;;;;10.23;6.68;;;12.20;95.70;;;;;;4991492;28;20139;-68
2021/08/29 07:09:40;;;;;;;10.00;6.70;;;12.30;96.00;;;;;;4991940;28;20105;-69
2021/08/29 07:12:07;;;;;;;11.43;6.40;;;12.30;96.30;;;;;;4989842;28;20057;-68
2021/08/29 07:14:33;;;;;;;8.93;5.93;;;12.30;96.20;;;;;;4992378;28;20054;-68
2021/08/29 07:16:58;;;;;;;11.57;6.25;;;12.30;96.10;;;;;;4995052;28;20060;-68
2021/08/29 07:19:24;;;;;;;10.45;6.43;;;12.40;96.20;;;;;;4992401;28;20038;-68
2021/08/29 07:21:50;;;;;;;11.10;6.63;;;12.40;95.90;;;;;;4992258;28;20612;-68
2021/08/29 07:24:16;;;;;;;11.65;7.07;;;12.40;95.90;;;;;;4992760;28;20089;-68
2021/08/29 07:26:41;;;;;;;10.55;6.82;;;12.40;96.00;;;;;;4991988;28;20045;-68
2021/08/29 07:29:07;;;;;;;12.30;7.40;;;12.40;96.10;;;;;;4992362;28;20056;-69
2021/08/29 07:31:33;;;;;;;13.30;7.13;;;12.40;95.70;;;;;;4991848;28;20543;-69
2021/08/29 07:33:58;;;;;;;14.48;7.38;;;12.50;96.20;;;;;;4989337;28;20034;-68
2021/08/29 07:36:24;;;;;;;11.52;7.20;;;12.50;95.90;;;;;;4991420;28;20356;-68
2021/08/29 07:38:50;;;;;;;11.13;7.00;;;12.50;95.90;;;;;;4982291;28;20050;-68
2021/08/29 07:41:15;;;;;;;11.13;6.68;;;12.50;95.60;;;;;;4987035;28;20541;-68
2021/08/29 07:43:41;;;;;;;10.90;7.00;;;12.50;95.80;;;;;;4985953;28;20495;-69
2021/08/29 07:46:07;;;;;;;10.15;6.75;;;12.60;95.90;;;;;;4983025;28;20041;-68
2021/08/29 07:48:33;;;;;;;11.30;7.60;;;12.60;95.90;;;;;;4984427;28;20106;-69
2021/08/29 07:50:59;;;;;;;11.93;7.07;;;12.60;96.00;;;;;;4985839;28;20463;-68
2021/08/29 07:53:25;;;;;;;12.00;7.03;;;12.70;96.00;;;;;;4984631;28;20030;-68
2021/08/29 07:55:51;;;;;;;11.93;7.43;;;12.70;95.90;;;;;;4988395;28;20038;-68
2021/08/29 07:58:18;;;;;;;12.25;6.72;;;12.70;95.50;;;;;;4983434;28;20030;-68
2021/08/29 08:00:44;;;;;;;11.55;6.65;;;12.70;95.50;;;;;;4984112;28;20140;-69
2021/08/29 08:03:10;;;;;;;12.57;7.00;;;12.80;95.70;;;;;;4986705;28;20034;-68
2021/08/29 08:05:35;;;;;;;10.10;6.78;;;12.80;95.90;;;;;;4985453;28;20503;-68
2021/08/29 08:08:01;;;;;;;11.93;7.53;;;12.90;95.90;;;;;;4990006;28;20054;-69
2021/08/29 08:10:28;;;;;;;11.48;7.13;;;13.00;96.10;;;;;;4985558;28;20030;-68
2021/08/29 08:12:54;;;;;;;10.23;6.82;;;13.10;96.20;;;;;;4986381;28;20034;-68
2021/08/29 08:15:19;;;;;;;10.30;6.45;;;13.10;95.90;;;;;;4985330;28;20514;-68
2021/08/29 08:17:45;;;;;;;12.50;7.57;;;13.10;95.30;;;;;;4984531;28;20026;-68
2021/08/29 08:20:11;;;;;;;12.57;6.93;;;13.20;95.90;;;;;;4985144;28;20035;-68
2021/08/29 08:22:37;;;;;;;13.05;7.60;;;13.20;95.70;;;;;;4986377;28;20088;-69
2021/08/29 08:25:03;;;;;;;9.43;7.05;;;13.30;95.60;;;;;;4983601;28;20036;-69
2021/08/29 08:27:29;;;;;;;9.98;6.72;;;13.30;95.30;;;;;;4986970;28;20038;-68
2021/08/29 08:29:54;;;;;;;9.52;6.53;;;13.30;95.10;;;;;;4986872;28;20029;-68
2021/08/29 08:32:20;;;;;;;9.95;6.72;;;13.30;95.00;;;;;;4983290;28;20042;-68
2021/08/29 08:34:46;;;;;;;10.48;6.22;;;13.30;94.90;;;;;;4982949;28;20650;-68
2021/08/29 08:37:11;;;;;;;10.93;6.45;;;13.20;94.80;;;;;;4984169;28;20529;-68
2021/08/29 08:39:37;;;;;;;9.50;6.05;;;13.20;94.50;;;;;;4990494;28;20518;-68
2021/08/29 08:42:04;;;;;;;9.15;6.40;;;13.20;94.50;;;;;;4991063;28;20046;-68
2021/08/29 08:44:29;;;;;;;8.10;6.32;;;13.20;94.60;;;;;;4991157;28;20097;-68
2021/08/29 08:46:57;;;;;;;8.73;6.30;;;13.20;94.70;;;;;;4987987;28;20138;-68
2021/08/29 08:49:25;;;;;;;9.40;6.50;;;13.20;94.70;;;;;;4987172;28;20033;-68
2021/08/29 08:51:55;;;;;;;9.70;5.93;;;13.20;95.50;;;;;;4994156;28;20029;-68
2021/08/29 08:54:22;;;;;;;7.93;5.82;;;13.10;94.10;;;;;;4997124;28;20066;-69
2021/08/29 08:56:48;;;;;;;8.95;5.97;;;13.20;95.00;;;;;;4992961;28;20027;-69
2021/08/29 08:59:14;;;;;;;8.55;6.32;;;13.30;94.80;;;;;;4991901;28;20113;-68
2021/08/29 09:01:40;;;;;;;8.68;6.55;;;13.30;94.90;;;;;;4992107;28;20050;-68
2021/08/29 09:04:06;;;;;;;8.70;5.80;;;13.40;94.20;;;;;;4992105;28;20038;-68
2021/08/29 09:06:35;;;;;;;9.98;6.15;;;13.40;94.80;;;;;;4992409;28;20025;-68
2021/08/29 09:09:03;;;;;;;9.43;5.90;;;13.40;94.50;;;;;;4990000;28;20826;-68
2021/08/29 09:11:33;;;;;;;7.63;5.68;;;13.50;94.40;;;;;;4996217;28;20022;-68
2021/08/29 09:13:59;;;;;;;10.88;6.57;;;13.50;94.70;;;;;;4989699;28;20030;-68
2021/08/29 09:16:26;;;;;;;7.63;5.25;;;13.60;95.00;;;;;;4989549;28;20065;-69
2021/08/29 09:19:03;;;;;;;7.60;5.47;;;13.60;94.10;;;;;;4992174;28;20049;-68
2021/08/29 09:21:37;;;;;;;6.97;5.43;;;13.60;94.50;;;;;;4991306;28;20546;-68
2021/08/29 09:24:08;;;;;;;7.05;4.43;;;13.70;94.80;;;;;;4990285;28;20088;-68
2021/08/29 09:26:40;;;;;;;6.28;4.40;;;13.70;94.10;;;;;;4990908;28;20366;-68
2021/08/29 09:29:07;;;;;;;6.22;4.63;;;13.70;92.80;;;;;;4988846;28;20084;-68
2021/08/29 09:31:44;;;;;;;5.68;4.18;;;13.70;93.60;;;;;;4988955;28;20454;-68
2021/08/29 09:34:11;;;;;;;5.45;4.00;;;13.90;93.40;;;;;;4992395;28;20136;-68
2021/08/29 09:36:39;;;;;;;4.95;3.30;;;13.90;93.80;;;;;;4991972;28;20093;-69
2021/08/29 09:39:09;;;;;;;;;;;13.90;92.30;;;;;;4992673;28;20097;-69
2021/08/29 09:41:35;;;;;;;3.97;3.58;;;13.90;92.10;;;;;;4988559;28;20291;-68
2021/08/29 09:44:15;;;;;;;4.55;3.13;;;13.90;92.70;;;;;;4987541;28;20038;-68
2021/08/29 09:46:55;;;;;;;5.55;3.42;;;13.90;91.30;;;;;;4989691;28;20046;-68
2021/08/29 09:49:27;;;;;;;3.67;2.75;;;13.90;91.80;;;;;;4991010;28;20049;-69
2021/08/29 09:51:54;;;;;;;4.35;3.08;;;14.10;92.30;;;;;;4985988;28;20070;-68
2021/08/29 09:54:40;;;;;;;4.00;3.50;;;14.10;91.60;;;;;;4984865;28;20106;-68
2021/08/29 09:57:11;;;;;;;3.08;2.53;;;14.20;92.20;;;;;;4983586;28;20037;-69
2021/08/29 09:59:42;;;;;;;3.58;2.22;;;14.20;90.60;;;;;;4991419;28;20022;-68
2021/08/29 10:02:10;;;;;;;3.22;2.50;;;14.30;90.30;;;;;;4991081;28;20507;-68
2021/08/29 10:04:36;;;;;;;3.08;2.58;;;14.40;91.30;;;;;;4988015;28;20051;-68
2021/08/29 10:07:16;;;;;;;2.90;2.60;;;14.50;89.90;;;;;;4990245;28;20082;-68
2021/08/29 10:09:43;;;;;;;3.08;2.25;;;14.50;90.50;;;;;;4988963;28;20831;-69
2021/08/29 10:12:10;;;;;;;3.07;2.27;;;14.50;90.30;;;;;;4993267;28;20053;-69
2021/08/29 10:14:38;;;;;;;2.25;2.05;;;14.50;90.50;;;;;;4992016;28;20045;-69
2021/08/29 10:17:04;;;;;;;;;;;14.50;89.00;;;;;;4990684;28;20053;-68
2021/08/29 10:19:30;;;;;;;2.00;1.90;;;14.50;88.40;;;;;;4994192;28;19910;-69
2021/08/29 10:21:57;;;;;;;1.75;1.33;;;14.50;89.00;;;;;;4987737;28;20594;-69
2021/08/29 10:24:27;;;;;;;2.25;1.60;;;14.40;87.20;;;;;;4995065;28;20459;-69
2021/08/29 10:26:55;;;;;;;1.80;1.65;;;14.40;88.40;;;;;;4990332;28;20131;-68
2021/08/29 10:29:29;;;;;;;1.70;1.60;;;14.30;89.30;;;;;;4989193;28;20034;-69
2021/08/29 10:32:13;;;;;;;1.55;1.40;;;14.30;88.80;;;;;;4992235;28;20026;-70
2021/08/29 10:34:39;;;;;;;1.52;1.42;;;14.30;88.80;;;;;;4993213;28;20033;-69
2021/08/29 10:37:05;;;;;;;1.60;1.50;;;14.30;89.80;;;;;;4989035;28;20068;-69
2021/08/29 10:39:31;;;;;;;5.78;1.63;;;14.30;89.60;;;;;;4996116;28;20049;-68
2021/08/29 10:42:00;;;;;;;1.73;1.23;;;14.30;89.20;;;;;;4991744;28;20041;-70
2021/08/29 10:44:25;;;;;;;;;;;14.30;89.20;;;;;;4997333;28;20494;-69
2021/08/29 10:46:51;;;;;;;1.58;1.20;;;14.40;87.90;;;;;;4994145;28;19910;-69
2021/08/29 10:49:19;;;;;;;5.18;1.23;;;14.40;88.80;;;;;;4990323;28;20387;-69
2021/08/29 10:51:46;;;;;;;1.35;1.25;;;14.40;85.80;;;;;;4994087;28;20030;-69
2021/08/29 10:54:13;;;;;;;0.90;0.90;;;14.30;87.00;;;;;;4990281;28;20050;-69
2021/08/29 10:56:41;;;;;;;1.10;1.00;;;14.40;85.80;;;;;;4993055;28;20033;-69
2021/08/29 10:59:09;;;;;;;1.10;1.00;;;14.40;84.60;;;;;;4996575;28;20029;-69
2021/08/29 11:01:44;;;;;;;1.17;1.08;;;14.40;84.60;;;;;;4980833;28;20059;-69
2021/08/29 11:04:19;;;;;;;0.88;0.88;;;14.50;85.00;;;;;;4991299;28;20030;-69
2021/08/29 11:06:50;;;;;;;1.10;0.90;;;14.60;85.60;;;;;;4994327;28;20022;-69
2021/08/29 11:09:40;;;;;;;1.20;1.10;;;14.60;86.20;;;;;;4994525;28;20026;-69
2021/08/29 11:12:26;;;;;;;1.42;1.10;;;14.70;83.90;;;;;;4992572;28;20100;-69
2021/08/29 11:14:56;;;;;;;0.73;0.73;;;14.70;82.90;;;;;;4979390;28;20034;-69
2021/08/29 11:17:27;;;;;;;1.30;0.80;;;14.70;84.10;;;;;;5001252;28;20498;-69
2021/08/29 11:20:02;;;;;;;0.93;0.93;;;14.80;83.10;;;;;;4988527;28;20109;-69
2021/08/29 11:22:37;;;;;;;1.10;0.82;;;14.90;85.40;;;;;;4987830;28;20037;-68
2021/08/29 11:25:24;;;;;;;0.80;0.80;;;15.00;81.10;;;;;;4991314;28;20487;-69
2021/08/29 11:27:58;;;;;;;0.90;0.90;;;15.00;84.50;;;;;;4992881;28;20026;-69
2021/08/29 11:30:34;;;;;;;1.38;1.02;;;15.10;84.70;;;;;;4989075;28;20027;-69
2021/08/29 11:33:06;;;;;;;0.70;0.70;;;15.10;84.40;;;;;;4990551;28;20077;-69
2021/08/29 11:35:42;;;;;;;2.42;0.90;;;15.20;81.40;;;;;;4994110;28;20026;-69
2021/08/29 11:38:14;;;;;;;6.90;0.88;;;15.10;79.20;;;;;;4985875;28;20109;-69
2021/08/29 11:41:04;;;;;;;0.90;0.90;;;15.10;80.60;;;;;;4979252;28;20026;-69
2021/08/29 11:43:32;;;;;;;1.02;0.90;;;15.10;82.40;;;;;;4991161;28;20046;-69
2021/08/29 11:46:15;;;;;;;0.80;0.80;;;15.20;81.90;;;;;;4988091;28;20041;-69
2021/08/29 11:48:57;;;;;;;3.40;0.95;;;15.30;81.60;;;;;;4983914;28;20037;-70
2021/08/29 11:51:34;;;;;;;1.35;1.25;;;15.40;82.00;;;;;;4990353;28;20038;-70
2021/08/29 11:54:05;;;;;;;0.75;0.75;;;15.40;79.40;;;;;;4988257;28;20125;-70
2021/08/29 11:56:34;;;;;;;0.77;0.70;;;15.30;81.30;;;;;;4984909;28;20542;-69
2021/08/29 11:59:01;;;;;;;;;;;15.40;78.90;;;;;;4991111;28;20026;-70
2021/08/29 12:01:30;;;;;;;1.00;1.00;;;15.40;80.20;;;;;;4991157;28;19917;-70
2021/08/29 12:03:58;;;;;;;0.70;0.70;;;15.60;80.00;;;;;;4985177;28;20034;-69
2021/08/29 12:06:38;;;;;;;0.68;0.68;;;15.60;80.40;;;;;;4986614;28;20109;-69
2021/08/29 12:09:27;;;;;;;0.73;0.73;;;15.60;78.50;;;;;;4990543;28;20533;-70
2021/08/29 12:11:54;;;;;;;0.82;0.82;;;15.40;76.90;;;;;;4992361;28;20022;-69
2021/08/29 12:14:25;;;;;;;0.77;0.77;;;15.40;79.30;;;;;;4992646;28;20026;-70
2021/08/29 12:16:53;;;;;;;1.85;0.90;;;15.40;78.50;;;;;;4992479;28;20438;-70
2021/08/29 12:19:24;;;;;;;0.80;0.80;;;15.40;80.30;;;;;;4987571;28;20122;-69
2021/08/29 12:21:51;;;;;;;0.75;0.75;;;15.50;81.00;;;;;;4984713;28;20023;-69
2021/08/29 12:24:29;;;;;;;1.90;0.90;;;15.50;79.90;;;;;;4989624;28;20037;-69
2021/08/29 12:27:02;;;;;;;0.60;0.60;;;15.50;78.60;;;;;;4991238;28;20033;-68
2021/08/29 12:29:29;;;;;;;0.95;0.82;;;15.40;79.20;;;;;;4991068;28;20097;-69
2021/08/29 12:32:05;;;;;;;1.08;0.93;;;15.60;78.90;;;;;;4991919;28;20468;-69
2021/08/29 12:34:31;;;;;;;0.68;0.68;;;15.60;79.30;;;;;;4989462;28;20077;-69
2021/08/29 12:37:10;;;;;;;0.90;0.90;;;15.70;80.70;;;;;;4990717;28;20031;-69
2021/08/29 12:39:36;;;;;;;0.90;0.90;;;15.60;78.40;;;;;;4993607;28;20118;-69
2021/08/29 12:42:15;;;;;;;1.10;1.02;;;15.50;78.50;;;;;;4991679;28;20105;-68
2021/08/29 12:44:41;;;;;;;1.17;1.08;;;15.40;79.00;;;;;;4990264;28;20120;-69
2021/08/29 12:47:06;;;;;;;0.93;0.93;;;15.30;77.10;;;;;;4989544;28;20046;-68
2021/08/29 12:49:32;;;;;;;0.80;0.80;;;15.20;77.40;;;;;;4997037;28;20100;-68